Mariazell, Austria
Current Conditions -  °F | °C
As of 1:50 PM on Thursday 27 Nov 2014 (Local Time) from LOXZ Reporting Station
Broken Clouds Broken Clouds  
Wind Chill: 39°   Ceiling: 2700
Heat Index: 39°   Visibility: 9mi
Dew Point: 32°   Wind: 2mph
Humidity: 75%   Direction: 340°NNW
Pressure: 29.94"   Gusts: NA
Location:  47.77°N, 15.32°E
Report Text: LOXZ 271150Z 34002KT 15KM FEW015ST BKN027SC 04/00 Q1014 NOSIGRMK OVC
Loading
Personal Weather Stations






























Interactive Weather Map New forecast layout! Learn more

10-Day Weather Forecast

Advertisements
Track Severe Weather on mobile